createdAt,value
2019-06-27T00:00:35.125Z,19.00
2019-06-27T00:03:04.438Z,18.90
2019-06-27T00:05:32.889Z,18.90
2019-06-27T00:08:01.353Z,18.80
2019-06-27T00:10:34.053Z,18.70
2019-06-27T00:13:01.142Z,18.50
2019-06-27T00:15:29.630Z,18.50
2019-06-27T00:17:58.165Z,18.50
2019-06-27T00:20:26.694Z,18.40
2019-06-27T00:22:55.234Z,18.50
2019-06-27T00:25:23.673Z,18.40
2019-06-27T00:27:52.146Z,18.30
2019-06-27T00:30:20.817Z,18.10
2019-06-27T00:32:49.290Z,18.20
2019-06-27T00:35:17.798Z,18.10
2019-06-27T00:37:46.671Z,18.00
2019-06-27T00:40:15.272Z,18.00
2019-06-27T00:42:43.717Z,17.90
2019-06-27T00:45:12.415Z,17.90
2019-06-27T00:47:40.922Z,17.70
2019-06-27T00:50:09.925Z,17.70
2019-06-27T00:52:38.445Z,17.70
2019-06-27T00:55:07.349Z,17.60
2019-06-27T00:57:35.969Z,17.50
2019-06-27T01:00:06.743Z,17.50
2019-06-27T01:02:35.644Z,17.50
2019-06-27T01:05:06.305Z,17.40
2019-06-27T01:07:34.923Z,17.30
2019-06-27T01:10:04.885Z,17.30
2019-06-27T01:12:33.329Z,17.30
2019-06-27T01:15:01.801Z,17.20
2019-06-27T01:17:30.318Z,17.20
2019-06-27T01:19:58.794Z,17.20
2019-06-27T01:22:27.301Z,17.20
2019-06-27T01:24:55.761Z,17.10
2019-06-27T01:27:29.862Z,17.00
2019-06-27T01:29:54.521Z,17.00
2019-06-27T01:32:22.967Z,17.00
2019-06-27T01:34:51.498Z,16.90
2019-06-27T01:37:19.939Z,16.90
2019-06-27T01:39:48.407Z,16.90
2019-06-27T01:42:16.845Z,16.80
2019-06-27T01:44:47.293Z,16.70
2019-06-27T01:47:15.731Z,16.70
2019-06-27T01:49:44.280Z,16.60
2019-06-27T01:52:12.745Z,16.60
2019-06-27T01:54:41.185Z,16.50
2019-06-27T01:57:09.650Z,16.50
2019-06-27T01:59:38.089Z,16.40
2019-06-27T02:02:07.017Z,16.30
2019-06-27T02:04:35.549Z,16.30
2019-06-27T02:07:04.139Z,16.10
2019-06-27T02:09:33.598Z,16.10
2019-06-27T02:12:02.227Z,16.00
2019-06-27T02:14:30.665Z,16.00
2019-06-27T02:16:59.193Z,16.00
2019-06-27T02:19:27.713Z,16.00
2019-06-27T02:21:56.246Z,15.90
2019-06-27T02:24:24.757Z,15.90
2019-06-27T02:26:53.198Z,15.90
2019-06-27T02:29:21.658Z,15.90
2019-06-27T02:31:50.102Z,15.80
2019-06-27T02:34:18.584Z,15.80
2019-06-27T02:36:47.237Z,15.80
2019-06-27T02:39:15.738Z,15.80
2019-06-27T02:41:44.230Z,15.70
2019-06-27T02:44:12.726Z,15.50
2019-06-27T02:46:41.238Z,15.60
2019-06-27T02:49:09.702Z,15.60
2019-06-27T02:51:38.297Z,15.60
2019-06-27T02:54:06.754Z,15.50
2019-06-27T02:56:35.222Z,15.40
2019-06-27T02:59:03.657Z,15.40
2019-06-27T03:01:32.270Z,15.30
2019-06-27T03:04:00.853Z,15.40
2019-06-27T03:06:29.314Z,15.30
2019-06-27T03:08:58.081Z,15.30
2019-06-27T03:11:26.626Z,15.30
2019-06-27T03:13:55.078Z,15.20
2019-06-27T03:16:23.622Z,15.20
2019-06-27T03:18:52.306Z,15.10
2019-06-27T03:21:20.790Z,15.00
2019-06-27T03:23:49.306Z,15.00
2019-06-27T03:26:17.793Z,15.00
2019-06-27T03:28:53.218Z,14.90
2019-06-27T03:31:16.597Z,14.80
2019-06-27T03:33:45.190Z,14.70
2019-06-27T03:36:13.788Z,14.80
2019-06-27T03:38:42.468Z,14.70
2019-06-27T03:41:11.022Z,14.60
2019-06-27T03:43:39.615Z,14.60
2019-06-27T03:46:08.226Z,14.70
2019-06-27T03:48:36.754Z,14.60
2019-06-27T03:51:05.599Z,14.60
2019-06-27T03:53:34.078Z,14.60
2019-06-27T03:56:02.554Z,14.60
2019-06-27T03:58:31.215Z,14.60
2019-06-27T04:00:59.733Z,14.60
2019-06-27T04:03:28.346Z,14.60
2019-06-27T04:05:56.867Z,14.60
2019-06-27T04:08:25.379Z,14.60
2019-06-27T04:10:53.894Z,14.60
2019-06-27T04:13:22.438Z,14.70
2019-06-27T04:15:50.891Z,14.60
2019-06-27T04:18:19.425Z,14.60
2019-06-27T04:20:48.029Z,14.60
2019-06-27T04:23:16.563Z,14.70
2019-06-27T04:25:45.023Z,14.70
2019-06-27T04:28:13.470Z,14.80
2019-06-27T04:30:42.016Z,14.80
2019-06-27T04:33:10.613Z,14.90
2019-06-27T04:35:39.220Z,14.90
2019-06-27T04:38:08.588Z,15.00
2019-06-27T04:40:37.131Z,15.20
2019-06-27T04:43:06.427Z,14.90
2019-06-27T04:45:35.286Z,14.90
2019-06-27T04:48:03.849Z,15.10
2019-06-27T04:50:32.397Z,15.10
2019-06-27T04:53:01.174Z,15.00
2019-06-27T04:55:29.650Z,15.20
2019-06-27T04:57:58.270Z,15.40
2019-06-27T05:00:29.461Z,15.40
2019-06-27T05:02:58.185Z,15.40
2019-06-27T05:05:26.693Z,15.40
2019-06-27T05:07:55.244Z,15.40
2019-06-27T05:10:23.937Z,15.20
2019-06-27T05:12:52.833Z,15.30
2019-06-27T05:15:21.301Z,15.30
2019-06-27T05:17:49.765Z,15.50
2019-06-27T05:20:18.224Z,15.50
2019-06-27T05:22:46.826Z,15.30
2019-06-27T05:25:15.275Z,15.40
2019-06-27T05:27:43.753Z,15.50
2019-06-27T05:30:12.604Z,15.30
2019-06-27T05:32:41.057Z,15.10
2019-06-27T05:35:10.658Z,15.10
2019-06-27T05:37:39.111Z,15.20
2019-06-27T05:40:08.483Z,15.30
2019-06-27T05:42:37.007Z,15.30
2019-06-27T05:45:08.835Z,15.40
2019-06-27T05:47:37.589Z,15.50
2019-06-27T05:50:07.424Z,15.50
2019-06-27T05:52:35.881Z,15.50
2019-06-27T05:55:06.593Z,15.50
2019-06-27T05:57:35.072Z,15.50
2019-06-27T06:00:06.133Z,15.60
2019-06-27T06:02:34.573Z,15.50
2019-06-27T06:05:03.186Z,15.70
2019-06-27T06:07:31.705Z,15.80
2019-06-27T06:10:00.164Z,15.80
2019-06-27T06:12:28.631Z,15.90
2019-06-27T06:14:57.082Z,16.00
2019-06-27T06:17:25.543Z,15.60
2019-06-27T06:19:53.996Z,16.00
2019-06-27T06:22:22.535Z,15.90
2019-06-27T06:24:51.085Z,16.10
2019-06-27T06:27:19.628Z,16.40
2019-06-27T06:29:48.183Z,15.90
2019-06-27T06:32:16.646Z,16.00
2019-06-27T06:34:45.094Z,15.70
2019-06-27T06:37:13.564Z,15.80
2019-06-27T06:39:42.015Z,16.10
2019-06-27T06:42:10.504Z,15.90
2019-06-27T06:44:38.943Z,16.10
2019-06-27T06:47:07.589Z,16.20
2019-06-27T06:49:36.178Z,16.30
2019-06-27T06:52:05.001Z,16.80
2019-06-27T06:54:33.439Z,16.40
2019-06-27T06:57:02.005Z,16.20
2019-06-27T06:59:30.513Z,16.40
2019-06-27T07:01:59.140Z,16.40
2019-06-27T07:04:27.609Z,16.60
2019-06-27T07:06:56.048Z,16.80
2019-06-27T07:09:24.709Z,17.20
2019-06-27T07:11:53.152Z,16.60
2019-06-27T07:14:21.664Z,16.60
2019-06-27T07:16:50.114Z,16.70
2019-06-27T07:19:18.591Z,16.80
2019-06-27T07:21:47.221Z,16.80
2019-06-27T07:24:15.732Z,16.60
2019-06-27T07:26:44.182Z,16.90
2019-06-27T07:29:12.653Z,17.30
2019-06-27T07:31:41.192Z,17.60
2019-06-27T07:34:09.784Z,17.60
2019-06-27T07:36:38.262Z,17.70
2019-06-27T07:39:06.715Z,17.90
2019-06-27T07:41:35.237Z,18.20
2019-06-27T07:44:03.686Z,18.30
2019-06-27T07:46:32.156Z,18.40
2019-06-27T07:49:00.616Z,18.40
2019-06-27T07:51:29.157Z,18.50
2019-06-27T07:53:57.604Z,18.50
2019-06-27T07:56:26.307Z,19.10
2019-06-27T07:58:54.816Z,18.90
2019-06-27T08:01:34.378Z,18.40
2019-06-27T08:03:53.515Z,18.50
2019-06-27T08:06:22.033Z,18.90
2019-06-27T08:08:50.529Z,19.00
2019-06-27T08:11:19.055Z,19.30
2019-06-27T08:13:47.594Z,19.40
2019-06-27T08:16:16.111Z,19.20
2019-06-27T08:18:44.581Z,19.30
2019-06-27T08:21:13.037Z,19.50
2019-06-27T08:23:42.219Z,19.60
2019-06-27T08:26:10.765Z,19.50
2019-06-27T08:28:39.248Z,19.30
2019-06-27T08:31:07.775Z,19.30
2019-06-27T08:33:36.259Z,19.60
2019-06-27T08:36:04.861Z,20.20
2019-06-27T08:38:33.332Z,20.30
2019-06-27T08:41:01.784Z,20.20
2019-06-27T08:43:30.404Z,20.20
2019-06-27T08:45:58.937Z,20.00
2019-06-27T08:48:27.386Z,20.10
2019-06-27T08:50:55.853Z,20.30
2019-06-27T08:53:24.438Z,20.50
2019-06-27T08:55:52.975Z,20.50
2019-06-27T08:58:21.499Z,20.70
2019-06-27T09:00:49.975Z,20.40
2019-06-27T09:03:18.426Z,20.20
2019-06-27T09:05:46.895Z,20.30
2019-06-27T09:08:15.397Z,20.70
2019-06-27T09:10:44.313Z,20.70
2019-06-27T09:13:12.761Z,20.60
2019-06-27T09:15:41.264Z,20.80
2019-06-27T09:18:09.719Z,20.90
2019-06-27T09:20:38.252Z,21.50
2019-06-27T09:23:06.890Z,21.30
2019-06-27T09:25:35.448Z,21.40
2019-06-27T09:28:03.972Z,21.20
2019-06-27T09:30:32.409Z,21.20
2019-06-27T09:33:00.944Z,21.50
2019-06-27T09:35:29.783Z,21.10
2019-06-27T09:37:58.240Z,22.10
2019-06-27T09:40:26.750Z,22.20
2019-06-27T09:42:55.219Z,22.20
2019-06-27T09:45:24.367Z,21.90
2019-06-27T09:47:52.897Z,22.30
2019-06-27T09:50:21.848Z,22.00
2019-06-27T09:52:50.781Z,22.20
2019-06-27T09:55:19.675Z,21.70
2019-06-27T09:57:48.289Z,22.20
2019-06-27T10:00:17.480Z,22.80
2019-06-27T10:02:45.981Z,22.60
2019-06-27T10:05:14.655Z,22.80
2019-06-27T10:07:43.098Z,22.40
2019-06-27T10:10:13.102Z,23.10
2019-06-27T10:12:43.183Z,22.60
2019-06-27T10:15:12.607Z,22.50
2019-06-27T10:17:41.043Z,23.40
2019-06-27T10:20:10.161Z,23.50
2019-06-27T10:22:38.599Z,23.10
2019-06-27T10:25:07.604Z,23.30
2019-06-27T10:27:36.059Z,23.60
2019-06-27T10:30:06.734Z,23.40
2019-06-27T10:32:35.173Z,23.70
2019-06-27T10:35:04.973Z,24.40
2019-06-27T10:37:33.568Z,24.00
2019-06-27T10:40:02.026Z,25.20
2019-06-27T10:42:30.540Z,23.40
2019-06-27T10:44:58.976Z,24.50
2019-06-27T10:47:27.454Z,23.90
2019-06-27T10:49:55.959Z,23.80
2019-06-27T10:52:24.426Z,24.80
2019-06-27T10:54:52.855Z,24.60
2019-06-27T10:57:21.317Z,24.70
2019-06-27T10:59:49.769Z,24.30
2019-06-27T11:02:18.229Z,23.80
2019-06-27T11:04:46.686Z,24.10
2019-06-27T11:07:15.199Z,24.80
2019-06-27T11:09:43.656Z,23.80
2019-06-27T11:12:12.123Z,24.00
2019-06-27T11:14:40.564Z,24.40
2019-06-27T11:17:09.110Z,24.90
2019-06-27T11:19:51.537Z,24.80
2019-06-27T11:22:07.848Z,24.80
2019-06-27T11:24:36.474Z,25.70
2019-06-27T11:27:05.111Z,26.60
2019-06-27T11:29:33.572Z,27.40
2019-06-27T11:32:02.086Z,26.70
2019-06-27T11:34:30.626Z,26.70
2019-06-27T11:36:59.142Z,27.10
2019-06-27T11:39:27.729Z,27.00
2019-06-27T11:41:56.289Z,28.20
2019-06-27T11:44:24.764Z,28.20
2019-06-27T11:46:53.240Z,28.30
2019-06-27T11:49:21.715Z,29.70
2019-06-27T11:51:50.522Z,28.00
2019-06-27T11:54:19.121Z,28.00
2019-06-27T11:56:47.569Z,28.60
2019-06-27T11:59:16.029Z,28.30
2019-06-27T12:01:44.474Z,28.30
2019-06-27T12:04:12.940Z,27.80
2019-06-27T12:06:41.390Z,28.40
2019-06-27T12:09:09.833Z,29.10
2019-06-27T12:11:38.293Z,29.90
2019-06-27T12:14:06.757Z,30.30
2019-06-27T12:16:35.278Z,29.20
2019-06-27T12:19:03.722Z,28.60
2019-06-27T12:21:32.322Z,28.90
2019-06-27T12:24:00.981Z,28.40
2019-06-27T12:26:29.578Z,28.90
2019-06-27T12:28:58.090Z,29.20
2019-06-27T12:31:26.543Z,28.90
2019-06-27T12:34:06.436Z,29.60
2019-06-27T12:36:26.006Z,29.60
2019-06-27T12:38:54.445Z,29.00
2019-06-27T12:41:22.985Z,29.50
2019-06-27T12:43:51.445Z,31.70
2019-06-27T12:46:19.917Z,29.90
2019-06-27T12:48:48.358Z,29.20
2019-06-27T12:51:16.893Z,28.70
2019-06-27T12:53:45.795Z,29.90
2019-06-27T12:56:14.328Z,29.20
2019-06-27T12:58:42.836Z,29.10
2019-06-27T13:01:11.299Z,30.80
2019-06-27T13:03:39.805Z,29.10
2019-06-27T13:06:08.351Z,29.20
2019-06-27T13:08:36.782Z,29.40
2019-06-27T13:11:05.233Z,30.30
2019-06-27T13:13:33.689Z,28.60
2019-06-27T13:16:02.145Z,28.30
2019-06-27T13:18:30.664Z,29.70
2019-06-27T13:20:59.101Z,30.00
2019-06-27T13:23:27.559Z,29.80
2019-06-27T13:25:56.005Z,30.40
2019-06-27T13:28:24.529Z,30.00
2019-06-27T13:30:53.032Z,29.50
2019-06-27T13:33:21.543Z,31.60
2019-06-27T13:35:49.977Z,29.40
2019-06-27T13:38:18.468Z,30.00
2019-06-27T13:40:46.970Z,29.20
2019-06-27T13:43:15.470Z,30.20
2019-06-27T13:45:43.981Z,32.10
2019-06-27T13:48:12.453Z,29.30
2019-06-27T13:50:40.957Z,30.70
2019-06-27T13:53:09.489Z,31.00
2019-06-27T13:55:38.225Z,32.00
2019-06-27T13:58:06.888Z,29.20
2019-06-27T14:00:43.880Z,30.00
2019-06-27T14:03:12.593Z,30.20
2019-06-27T14:05:41.319Z,30.70
2019-06-27T14:08:09.959Z,29.80
2019-06-27T14:10:38.596Z,30.50
2019-06-27T14:13:07.197Z,30.70
2019-06-27T14:15:35.634Z,30.40
2019-06-27T14:18:04.260Z,31.10
2019-06-27T14:20:32.704Z,30.00
2019-06-27T14:23:01.129Z,31.50
2019-06-27T14:25:29.594Z,30.30
2019-06-27T14:27:58.159Z,29.00
2019-06-27T14:30:26.933Z,29.80
2019-06-27T14:32:55.460Z,30.40
2019-06-27T14:35:24.095Z,31.60
2019-06-27T14:37:52.543Z,27.70
2019-06-27T14:40:21.635Z,26.50
2019-06-27T14:42:50.410Z,26.30
2019-06-27T14:45:20.146Z,25.90
2019-06-27T14:47:50.119Z,25.70
2019-06-27T14:50:18.692Z,25.40
2019-06-27T14:52:47.186Z,25.40
2019-06-27T14:55:16.862Z,25.90
2019-06-27T14:57:45.354Z,25.60
2019-06-27T15:00:14.400Z,25.30
2019-06-27T15:02:42.862Z,25.50
2019-06-27T15:05:13.070Z,25.40
2019-06-27T15:07:41.664Z,25.40
2019-06-27T15:10:11.145Z,25.40
2019-06-27T15:12:55.482Z,25.40
2019-06-27T15:15:10.055Z,25.80
2019-06-27T15:17:38.777Z,25.50
2019-06-27T15:20:08.049Z,25.10
2019-06-27T15:22:36.625Z,25.00
2019-06-27T15:25:07.209Z,25.20
2019-06-27T15:27:35.806Z,25.40
2019-06-27T15:30:07.086Z,25.20
2019-06-27T15:32:35.536Z,25.50
2019-06-27T15:35:05.228Z,25.10
2019-06-27T15:37:34.366Z,24.80
2019-06-27T15:40:03.550Z,24.70
2019-06-27T15:42:32.052Z,24.70
2019-06-27T15:45:00.522Z,24.90
2019-06-27T15:47:28.963Z,24.60
2019-06-27T15:49:57.429Z,24.60
2019-06-27T15:52:25.924Z,24.60
2019-06-27T15:54:54.429Z,24.70
2019-06-27T15:57:22.937Z,25.10
2019-06-27T15:59:51.457Z,24.90
2019-06-27T16:02:20.012Z,24.50
2019-06-27T16:04:48.784Z,24.60
2019-06-27T16:07:17.418Z,24.70
2019-06-27T16:09:46.037Z,24.90
2019-06-27T16:12:14.588Z,24.70
2019-06-27T16:14:43.130Z,24.50
2019-06-27T16:17:11.583Z,24.60
2019-06-27T16:19:40.179Z,24.90
2019-06-27T16:22:08.756Z,24.60
2019-06-27T16:24:37.391Z,24.60
2019-06-27T16:27:05.903Z,24.40
2019-06-27T16:29:34.378Z,24.60
2019-06-27T16:32:02.881Z,24.70
2019-06-27T16:34:31.447Z,24.40
2019-06-27T16:36:59.966Z,24.50
2019-06-27T16:39:28.412Z,24.50
2019-06-27T16:41:56.871Z,24.20
2019-06-27T16:44:25.349Z,24.20
2019-06-27T16:46:53.992Z,24.20
2019-06-27T16:49:22.428Z,24.30
2019-06-27T16:51:51.099Z,24.20
2019-06-27T16:54:19.567Z,24.20
2019-06-27T16:56:48.103Z,24.50
2019-06-27T16:59:16.705Z,24.30
2019-06-27T17:01:45.238Z,24.20
2019-06-27T17:04:14.004Z,24.00
2019-06-27T17:06:42.940Z,24.10
2019-06-27T17:09:11.767Z,24.00
2019-06-27T17:11:40.207Z,23.90
2019-06-27T17:14:08.714Z,24.00
2019-06-27T17:16:37.337Z,24.00
2019-06-27T17:19:05.869Z,24.00
2019-06-27T17:21:34.334Z,23.80
2019-06-27T17:24:03.150Z,23.90
2019-06-27T17:26:32.088Z,23.80
2019-06-27T17:29:00.541Z,23.90
2019-06-27T17:31:29.072Z,23.70
2019-06-27T17:33:57.516Z,23.80
2019-06-27T17:36:26.111Z,23.80
2019-06-27T17:38:54.731Z,23.90
2019-06-27T17:41:23.469Z,23.80
2019-06-27T17:43:51.903Z,23.70
2019-06-27T17:46:20.396Z,23.50
2019-06-27T17:48:48.884Z,23.70
2019-06-27T17:51:17.383Z,23.70
2019-06-27T17:53:45.849Z,23.60
2019-06-27T17:56:14.293Z,23.60
2019-06-27T17:58:42.757Z,23.60
2019-06-27T18:01:11.193Z,23.50
2019-06-27T18:03:39.637Z,23.50
2019-06-27T18:06:08.078Z,23.50
2019-06-27T18:08:36.544Z,23.50
2019-06-27T18:11:05.132Z,23.50
2019-06-27T18:13:33.610Z,23.40
2019-06-27T18:16:02.122Z,23.30
2019-06-27T18:18:30.652Z,23.40
2019-06-27T18:20:59.419Z,23.20
2019-06-27T18:23:27.857Z,23.00
2019-06-27T18:25:56.316Z,23.00
2019-06-27T18:28:25.093Z,23.10
2019-06-27T18:30:53.746Z,23.00
2019-06-27T18:33:22.329Z,23.00
2019-06-27T18:35:50.820Z,23.00
2019-06-27T18:38:19.407Z,23.00
2019-06-27T18:40:47.998Z,22.90
2019-06-27T18:43:16.450Z,22.80
2019-06-27T18:45:45.041Z,22.80
2019-06-27T18:48:13.484Z,22.70
2019-06-27T18:50:41.943Z,22.70
2019-06-27T18:53:10.384Z,22.60
2019-06-27T18:55:38.846Z,22.70
2019-06-27T18:58:07.557Z,22.60
2019-06-27T19:00:36.150Z,22.50
2019-06-27T19:03:04.663Z,22.40
2019-06-27T19:05:33.111Z,22.40
2019-06-27T19:08:01.566Z,22.30
2019-06-27T19:10:30.370Z,22.30
2019-06-27T19:12:58.903Z,22.20
2019-06-27T19:15:27.478Z,22.20
2019-06-27T19:17:56.012Z,22.10
2019-06-27T19:20:26.146Z,22.00
2019-06-27T19:23:02.274Z,22.00
2019-06-27T19:25:32.353Z,21.90
2019-06-27T19:28:00.861Z,21.80
2019-06-27T19:30:29.368Z,21.70
2019-06-27T19:32:57.822Z,21.60
2019-06-27T19:35:26.278Z,21.60
2019-06-27T19:38:02.114Z,21.50
2019-06-27T19:40:25.093Z,21.30
2019-06-27T19:42:53.615Z,21.30
2019-06-27T19:45:22.410Z,21.20
2019-06-27T19:47:50.878Z,21.10
2019-06-27T19:50:20.051Z,21.00
2019-06-27T19:52:48.657Z,20.90
2019-06-27T19:55:17.169Z,20.80
2019-06-27T19:57:45.605Z,20.70
2019-06-27T20:00:14.395Z,20.60
2019-06-27T20:02:42.843Z,20.40
2019-06-27T20:05:11.652Z,20.40
2019-06-27T20:07:40.183Z,20.20
2019-06-27T20:10:11.825Z,20.20
2019-06-27T20:12:39.954Z,20.10
2019-06-27T20:15:08.652Z,19.90
2019-06-27T20:17:37.097Z,19.90
2019-06-27T20:20:06.373Z,19.80
2019-06-27T20:22:34.822Z,19.70
2019-06-27T20:25:03.454Z,19.70
2019-06-27T20:27:31.892Z,19.60
2019-06-27T20:30:00.353Z,19.60
2019-06-27T20:32:28.796Z,19.60
2019-06-27T20:34:57.324Z,19.50
2019-06-27T20:37:27.074Z,19.40
2019-06-27T20:39:55.920Z,19.20
2019-06-27T20:42:24.381Z,19.10
2019-06-27T20:44:52.828Z,19.00
2019-06-27T20:47:21.362Z,18.90
2019-06-27T20:49:49.897Z,18.80
2019-06-27T20:52:18.349Z,18.70
2019-06-27T20:54:46.866Z,18.70
2019-06-27T20:57:15.329Z,18.60
2019-06-27T20:59:43.760Z,18.60
2019-06-27T21:02:12.215Z,18.50
2019-06-27T21:04:40.667Z,18.40
2019-06-27T21:07:10.061Z,18.30
2019-06-27T21:09:38.605Z,18.20
2019-06-27T21:12:07.250Z,18.10
2019-06-27T21:14:35.773Z,18.00
2019-06-27T21:17:04.237Z,17.90
2019-06-27T21:19:32.693Z,17.80
2019-06-27T21:22:01.226Z,17.70
2019-06-27T21:24:29.677Z,17.60
2019-06-27T21:26:58.161Z,17.60
2019-06-27T21:29:26.592Z,17.50
2019-06-27T21:31:55.081Z,17.50
2019-06-27T21:34:23.512Z,17.40
2019-06-27T21:36:51.973Z,17.40
2019-06-27T21:39:20.417Z,17.30
2019-06-27T21:41:48.960Z,17.20
2019-06-27T21:44:17.465Z,17.20
2019-06-27T21:46:45.929Z,17.10
2019-06-27T21:49:14.378Z,17.10
2019-06-27T21:51:42.843Z,17.10
2019-06-27T21:54:11.340Z,17.10
2019-06-27T21:56:39.813Z,17.00
2019-06-27T21:59:08.316Z,16.90
2019-06-27T22:01:37.213Z,16.80
2019-06-27T22:04:05.972Z,16.80
2019-06-27T22:06:34.558Z,16.70
2019-06-27T22:09:04.770Z,16.70
2019-06-27T22:11:33.511Z,16.80
2019-06-27T22:14:02.050Z,16.70
2019-06-27T22:16:30.590Z,16.70
2019-06-27T22:18:59.456Z,16.60
2019-06-27T22:21:27.964Z,16.70
2019-06-27T22:23:56.494Z,16.70
2019-06-27T22:26:25.005Z,16.60
2019-06-27T22:28:53.648Z,16.60
2019-06-27T22:31:22.298Z,16.60
2019-06-27T22:33:50.901Z,16.60
2019-06-27T22:36:19.342Z,16.50
2019-06-27T22:39:05.526Z,16.40
2019-06-27T22:41:52.181Z,16.40
2019-06-27T22:44:38.771Z,16.40
2019-06-27T22:47:25.581Z,16.30
2019-06-27T22:49:53.637Z,16.30
2019-06-27T22:52:40.410Z,16.20
2019-06-27T22:55:22.633Z,16.20
2019-06-27T22:57:51.104Z,16.20
2019-06-27T23:00:19.716Z,16.10
2019-06-27T23:02:48.148Z,16.10
2019-06-27T23:05:16.672Z,16.00
2019-06-27T23:07:45.111Z,16.00
2019-06-27T23:10:13.832Z,15.90
2019-06-27T23:12:42.315Z,15.90
2019-06-27T23:15:10.848Z,15.90
2019-06-27T23:17:39.284Z,15.90
2019-06-27T23:20:08.215Z,15.90
2019-06-27T23:22:36.785Z,15.80
2019-06-27T23:25:05.514Z,15.70
2019-06-27T23:27:34.063Z,15.70
2019-06-27T23:30:02.649Z,15.60
2019-06-27T23:32:31.088Z,15.60
2019-06-27T23:34:59.562Z,15.60
2019-06-27T23:37:28.060Z,15.50
2019-06-27T23:40:09.562Z,15.30
2019-06-27T23:42:26.786Z,15.20
2019-06-27T23:44:55.268Z,15.10
2019-06-27T23:47:23.790Z,15.00
2019-06-27T23:49:52.229Z,15.10
2019-06-27T23:52:20.789Z,15.20
2019-06-27T23:54:49.292Z,15.30
2019-06-27T23:57:17.747Z,15.20
2019-06-27T23:59:46.256Z,15.20
